KFRH/FRH METAR and TAF weather

Enter ICAO airport designator
Station Type Date Time Source
KFRH METAR 2020/02/28 08:15 UTC NOAA

KFRH 280815Z AUTO 30003KT 7SM SCT010 BKN021 OVC046 00/00 A3005 RMK AO1


Station Type Date Time Source
KFRH Decoded METAR 2020/02/28 08:15 UTC NOAA

Station name not available
Feb 28, 2020 - 03:15 AM EST / 2020.02.28 0815 UTC
Wind: from the WNW (300 degrees) at 3 MPH (3 KT):0
Visibility: 7 mile(s):0
Sky conditions: overcast
Temperature: 32 F (0 C)
Dew Point: 32 F (0 C)
Relative Humidity: 100%
Pressure (altimeter): 30.05 in. Hg (1017 hPa)
ob: KFRH 280815Z AUTO 30003KT 7SM SCT010 BKN021 OVC046 00/00 A3005 RMK AO1
cycle: 8

Station Type Date Time Source
KFRH TAF UTC NOAA

Error!

Example: see airport list